sensor_id;sensor_type;location;lat;lon;timestamp;pressure;altitude;pressure_sealevel;temperature;humidity
34658;BME280;20865;43.312;27.152;2022-09-03T00:00:11;100099.42;;;29.18;51.54
34658;BME280;20865;43.312;27.152;2022-09-03T00:02:40;100096.34;;;29.09;50.84
34658;BME280;20865;43.312;27.152;2022-09-03T00:05:30;100087.87;;;28.98;49.90
34658;BME280;20865;43.312;27.152;2022-09-03T00:08:05;100084.95;;;28.91;49.99
34658;BME280;20865;43.312;27.152;2022-09-03T00:13:33;100086.99;;;28.81;50.26
34658;BME280;20865;43.312;27.152;2022-09-03T00:16:04;100091.78;;;28.79;49.85
34658;BME280;20865;43.312;27.152;2022-09-03T00:18:34;100092.48;;;28.77;49.66
34658;BME280;20865;43.312;27.152;2022-09-03T00:21:19;100097.09;;;28.72;49.69
34658;BME280;20865;43.312;27.152;2022-09-03T00:23:47;100104.99;;;28.67;50.20
34658;BME280;20865;43.312;27.152;2022-09-03T00:26:27;100115.28;;;28.65;50.42
34658;BME280;20865;43.312;27.152;2022-09-03T00:29:02;100116.31;;;28.64;49.86
34658;BME280;20865;43.312;27.152;2022-09-03T00:31:42;100117.30;;;28.55;50.18
34658;BME280;20865;43.312;27.152;2022-09-03T00:34:25;100134.30;;;28.51;49.25
34658;BME280;20865;43.312;27.152;2022-09-03T00:36:52;100137.70;;;28.44;48.78
34658;BME280;20865;43.312;27.152;2022-09-03T00:39:22;100143.47;;;28.37;49.33
34658;BME280;20865;43.312;27.152;2022-09-03T00:47:53;100166.98;;;28.32;50.21
34658;BME280;20865;43.312;27.152;2022-09-03T00:53:07;100175.98;;;28.16;50.42
34658;BME280;20865;43.312;27.152;2022-09-03T01:00:42;100184.88;;;28.14;50.01
34658;BME280;20865;43.312;27.152;2022-09-03T01:06:18;100187.28;;;28.13;50.10
34658;BME280;20865;43.312;27.152;2022-09-03T01:09:06;100184.34;;;28.10;50.22
34658;BME280;20865;43.312;27.152;2022-09-03T01:11:47;100186.94;;;28.12;49.65
34658;BME280;20865;43.312;27.152;2022-09-03T01:17:12;100181.45;;;28.12;49.87
34658;BME280;20865;43.312;27.152;2022-09-03T01:19:55;100180.06;;;28.08;49.79
34658;BME280;20865;43.312;27.152;2022-09-03T01:25:48;100189.86;;;27.88;50.19
34658;BME280;20865;43.312;27.152;2022-09-03T01:28:22;100195.53;;;27.87;50.54
34658;BME280;20865;43.312;27.152;2022-09-03T01:30:54;100198.07;;;27.84;50.26
34658;BME280;20865;43.312;27.152;2022-09-03T01:36:05;100199.56;;;27.78;49.64
34658;BME280;20865;43.312;27.152;2022-09-03T01:46:38;100189.89;;;27.74;49.62
34658;BME280;20865;43.312;27.152;2022-09-03T01:49:18;100192.87;;;27.77;49.57
34658;BME280;20865;43.312;27.152;2022-09-03T01:51:49;100177.92;;;27.75;49.13
34658;BME280;20865;43.312;27.152;2022-09-03T02:00:07;100185.03;;;27.68;49.71
34658;BME280;20865;43.312;27.152;2022-09-03T02:02:35;100176.41;;;27.59;49.12
34658;BME280;20865;43.312;27.152;2022-09-03T02:07:57;100180.64;;;27.53;49.59
34658;BME280;20865;43.312;27.152;2022-09-03T02:13:10;100177.69;;;27.51;48.73
34658;BME280;20865;43.312;27.152;2022-09-03T02:15:40;100180.17;;;27.40;48.63
34658;BME280;20865;43.312;27.152;2022-09-03T02:18:22;100183.84;;;27.45;48.68
34658;BME280;20865;43.312;27.152;2022-09-03T02:20:41;100181.95;;;27.45;49.31
34658;BME280;20865;43.312;27.152;2022-09-03T02:23:09;100177.77;;;27.37;48.20
34658;BME280;20865;43.312;27.152;2022-09-03T02:25:39;100185.35;;;27.25;48.49
34658;BME280;20865;43.312;27.152;2022-09-03T02:28:08;100185.35;;;27.25;48.49
34658;BME280;20865;43.312;27.152;2022-09-03T02:30:36;100188.02;;;27.17;48.69
34658;BME280;20865;43.312;27.152;2022-09-03T02:33:04;100186.48;;;27.19;48.83
34658;BME280;20865;43.312;27.152;2022-09-03T02:35:32;100186.34;;;27.20;48.39
34658;BME280;20865;43.312;27.152;2022-09-03T02:38:22;100181.82;;;27.33;48.06
34658;BME280;20865;43.312;27.152;2022-09-03T02:40:46;100191.80;;;27.34;47.87
34658;BME280;20865;43.312;27.152;2022-09-03T02:43:17;100191.80;;;27.34;47.87
34658;BME280;20865;43.312;27.152;2022-09-03T02:45:49;100194.70;;;27.19;48.34
34658;BME280;20865;43.312;27.152;2022-09-03T02:48:19;100182.98;;;27.13;48.29
34658;BME280;20865;43.312;27.152;2022-09-03T02:50:48;100189.23;;;27.19;48.82
34658;BME280;20865;43.312;27.152;2022-09-03T02:53:16;100189.23;;;27.19;48.82
34658;BME280;20865;43.312;27.152;2022-09-03T02:55:43;100197.83;;;27.20;48.22
34658;BME280;20865;43.312;27.152;2022-09-03T02:58:12;100195.22;;;27.18;48.08
34658;BME280;20865;43.312;27.152;2022-09-03T03:00:40;100176.34;;;27.15;48.49
34658;BME280;20865;43.312;27.152;2022-09-03T03:03:08;100176.34;;;27.15;48.49
34658;BME280;20865;43.312;27.152;2022-09-03T03:08:09;100184.56;;;27.15;48.38
34658;BME280;20865;43.312;27.152;2022-09-03T03:10:38;100194.75;;;27.23;47.65
34658;BME280;20865;43.312;27.152;2022-09-03T03:13:06;100199.88;;;27.22;48.30
34658;BME280;20865;43.312;27.152;2022-09-03T03:15:34;100195.08;;;27.20;47.95
34658;BME280;20865;43.312;27.152;2022-09-03T03:18:01;100186.31;;;27.34;47.47
34658;BME280;20865;43.312;27.152;2022-09-03T03:20:29;100186.31;;;27.34;47.47
34658;BME280;20865;43.312;27.152;2022-09-03T03:22:57;100193.71;;;27.20;47.91
34658;BME280;20865;43.312;27.152;2022-09-03T03:25:26;100192.44;;;27.14;48.15
34658;BME280;20865;43.312;27.152;2022-09-03T03:27:54;100195.73;;;27.18;48.16
34658;BME280;20865;43.312;27.152;2022-09-03T03:30:22;100195.84;;;27.12;47.41
34658;BME280;20865;43.312;27.152;2022-09-03T03:32:51;100210.02;;;27.12;48.02
34658;BME280;20865;43.312;27.152;2022-09-03T03:35:19;100217.46;;;27.15;48.01
34658;BME280;20865;43.312;27.152;2022-09-03T03:37:46;100220.20;;;27.15;47.84
34658;BME280;20865;43.312;27.152;2022-09-03T03:40:14;100219.23;;;27.06;48.04
34658;BME280;20865;43.312;27.152;2022-09-03T03:42:42;100219.23;;;27.06;48.04
34658;BME280;20865;43.312;27.152;2022-09-03T03:45:10;100224.34;;;27.05;48.71
34658;BME280;20865;43.312;27.152;2022-09-03T03:47:38;100230.16;;;27.02;48.30
34658;BME280;20865;43.312;27.152;2022-09-03T03:50:06;100232.52;;;27.01;48.70
34658;BME280;20865;43.312;27.152;2022-09-03T03:52:34;100232.52;;;27.01;48.70
34658;BME280;20865;43.312;27.152;2022-09-03T03:55:01;100240.95;;;27.04;49.06
34658;BME280;20865;43.312;27.152;2022-09-03T03:57:30;100232.42;;;27.07;48.26
34658;BME280;20865;43.312;27.152;2022-09-03T03:59:58;100232.42;;;27.07;48.26
34658;BME280;20865;43.312;27.152;2022-09-03T04:02:25;100242.30;;;27.14;48.40
34658;BME280;20865;43.312;27.152;2022-09-03T04:04:53;100241.31;;;27.19;48.53
34658;BME280;20865;43.312;27.152;2022-09-03T04:07:20;100241.31;;;27.19;48.53
34658;BME280;20865;43.312;27.152;2022-09-03T04:09:48;100235.94;;;27.27;48.37
34658;BME280;20865;43.312;27.152;2022-09-03T04:12:16;100232.86;;;27.30;48.18
34658;BME280;20865;43.312;27.152;2022-09-03T04:14:44;100224.33;;;27.33;48.56
34658;BME280;20865;43.312;27.152;2022-09-03T04:17:12;100224.33;;;27.33;48.56
34658;BME280;20865;43.312;27.152;2022-09-03T04:19:40;100204.85;;;27.22;48.11
34658;BME280;20865;43.312;27.152;2022-09-03T04:22:08;100208.08;;;27.18;48.64
34658;BME280;20865;43.312;27.152;2022-09-03T04:24:35;100229.56;;;27.26;48.70
34658;BME280;20865;43.312;27.152;2022-09-03T04:27:04;100229.56;;;27.26;48.70
34658;BME280;20865;43.312;27.152;2022-09-03T04:29:32;100224.18;;;27.17;48.75
34658;BME280;20865;43.312;27.152;2022-09-03T04:32:00;100223.91;;;27.24;48.60
34658;BME280;20865;43.312;27.152;2022-09-03T04:34:46;100237.37;;;27.17;49.21
34658;BME280;20865;43.312;27.152;2022-09-03T04:37:13;100240.42;;;27.14;49.11
34658;BME280;20865;43.312;27.152;2022-09-03T04:39:42;100240.42;;;27.14;49.11
34658;BME280;20865;43.312;27.152;2022-09-03T04:42:10;100254.67;;;27.18;49.08
34658;BME280;20865;43.312;27.152;2022-09-03T04:44:38;100254.67;;;27.18;49.08
34658;BME280;20865;43.312;27.152;2022-09-03T04:47:07;100264.78;;;27.17;48.92
34658;BME280;20865;43.312;27.152;2022-09-03T04:49:35;100262.86;;;27.14;48.73
34658;BME280;20865;43.312;27.152;2022-09-03T04:52:03;100279.00;;;27.17;48.37
34658;BME280;20865;43.312;27.152;2022-09-03T04:54:30;100279.00;;;27.17;48.37
34658;BME280;20865;43.312;27.152;2022-09-03T04:56:58;100278.63;;;27.16;48.50
34658;BME280;20865;43.312;27.152;2022-09-03T04:59:25;100279.31;;;27.14;48.34
34658;BME280;20865;43.312;27.152;2022-09-03T05:01:53;100279.31;;;27.14;48.34
34658;BME280;20865;43.312;27.152;2022-09-03T05:04:22;100277.86;;;27.10;47.96
34658;BME280;20865;43.312;27.152;2022-09-03T05:06:50;100290.80;;;27.03;47.82
34658;BME280;20865;43.312;27.152;2022-09-03T05:09:17;100290.80;;;27.03;47.82
34658;BME280;20865;43.312;27.152;2022-09-03T05:11:45;100290.25;;;27.00;47.90
34658;BME280;20865;43.312;27.152;2022-09-03T05:14:12;100293.89;;;27.04;47.72
34658;BME280;20865;43.312;27.152;2022-09-03T05:16:40;100300.09;;;27.06;47.39
34658;BME280;20865;43.312;27.152;2022-09-03T05:19:08;100296.97;;;27.05;47.68
34658;BME280;20865;43.312;27.152;2022-09-03T05:21:36;100291.66;;;27.04;47.51
34658;BME280;20865;43.312;27.152;2022-09-03T05:24:04;100297.14;;;27.04;47.88
34658;BME280;20865;43.312;27.152;2022-09-03T05:26:35;100299.53;;;26.89;48.20
34658;BME280;20865;43.312;27.152;2022-09-03T05:29:05;100289.98;;;26.79;48.51
34658;BME280;20865;43.312;27.152;2022-09-03T05:31:39;100289.98;;;26.79;48.51
34658;BME280;20865;43.312;27.152;2022-09-03T05:34:05;100303.22;;;26.84;48.28
34658;BME280;20865;43.312;27.152;2022-09-03T05:36:35;100304.88;;;26.81;48.12
34658;BME280;20865;43.312;27.152;2022-09-03T05:39:04;100293.23;;;26.79;48.22
34658;BME280;20865;43.312;27.152;2022-09-03T05:41:32;100292.07;;;26.81;48.26
34658;BME280;20865;43.312;27.152;2022-09-03T05:44:00;100295.51;;;26.83;48.31
34658;BME280;20865;43.312;27.152;2022-09-03T05:46:31;100301.71;;;26.86;48.12
34658;BME280;20865;43.312;27.152;2022-09-03T05:49:00;100291.56;;;26.82;47.38
34658;BME280;20865;43.312;27.152;2022-09-03T05:51:29;100302.60;;;26.76;47.26
34658;BME280;20865;43.312;27.152;2022-09-03T05:53:57;100307.52;;;26.73;48.20
34658;BME280;20865;43.312;27.152;2022-09-03T05:56:27;100307.52;;;26.73;48.20
34658;BME280;20865;43.312;27.152;2022-09-03T05:58:57;100314.83;;;26.68;48.20
34658;BME280;20865;43.312;27.152;2022-09-03T06:01:29;100309.03;;;26.57;48.04
34658;BME280;20865;43.312;27.152;2022-09-03T06:04:06;100309.89;;;26.58;48.36
34658;BME280;20865;43.312;27.152;2022-09-03T06:06:34;100312.76;;;26.56;48.19
34658;BME280;20865;43.312;27.152;2022-09-03T06:09:10;100304.32;;;26.77;47.71
34658;BME280;20865;43.312;27.152;2022-09-03T06:11:39;100309.48;;;26.67;47.94
34658;BME280;20865;43.312;27.152;2022-09-03T06:14:09;100306.48;;;26.60;48.11
34658;BME280;20865;43.312;27.152;2022-09-03T06:16:40;100308.06;;;26.63;48.09
34658;BME280;20865;43.312;27.152;2022-09-03T06:19:09;100313.73;;;26.75;48.08
34658;BME280;20865;43.312;27.152;2022-09-03T06:21:38;100307.75;;;26.89;47.48
34658;BME280;20865;43.312;27.152;2022-09-03T06:24:09;100315.77;;;27.00;47.76
34658;BME280;20865;43.312;27.152;2022-09-03T06:26:39;100322.88;;;27.07;47.25
34658;BME280;20865;43.312;27.152;2022-09-03T06:29:06;100327.84;;;27.17;46.92
34658;BME280;20865;43.312;27.152;2022-09-03T06:31:34;100330.55;;;27.03;47.57
34658;BME280;20865;43.312;27.152;2022-09-03T06:34:01;100338.05;;;27.01;47.16
34658;BME280;20865;43.312;27.152;2022-09-03T06:36:29;100341.28;;;26.87;47.31
34658;BME280;20865;43.312;27.152;2022-09-03T06:38:57;100352.53;;;26.84;47.26
34658;BME280;20865;43.312;27.152;2022-09-03T06:41:30;100348.33;;;26.76;47.45
34658;BME280;20865;43.312;27.152;2022-09-03T06:44:04;100357.97;;;26.80;47.59
34658;BME280;20865;43.312;27.152;2022-09-03T06:46:36;100362.37;;;26.77;47.42
34658;BME280;20865;43.312;27.152;2022-09-03T06:49:09;100357.62;;;26.79;47.56
34658;BME280;20865;43.312;27.152;2022-09-03T06:51:37;100363.52;;;26.74;47.83
34658;BME280;20865;43.312;27.152;2022-09-03T06:54:07;100359.50;;;26.78;48.03
34658;BME280;20865;43.312;27.152;2022-09-03T06:56:37;100365.64;;;26.90;47.62
34658;BME280;20865;43.312;27.152;2022-09-03T06:59:11;100364.49;;;26.93;47.61
34658;BME280;20865;43.312;27.152;2022-09-03T07:01:36;100371.83;;;26.78;47.90
34658;BME280;20865;43.312;27.152;2022-09-03T07:04:05;100372.13;;;26.75;48.11
34658;BME280;20865;43.312;27.152;2022-09-03T07:06:35;100389.20;;;26.73;47.96
34658;BME280;20865;43.312;27.152;2022-09-03T07:09:05;100380.13;;;26.73;48.30
34658;BME280;20865;43.312;27.152;2022-09-03T07:11:34;100391.12;;;26.87;47.75
34658;BME280;20865;43.312;27.152;2022-09-03T07:14:04;100390.26;;;26.86;48.06
34658;BME280;20865;43.312;27.152;2022-09-03T07:16:36;100397.11;;;26.86;47.80
34658;BME280;20865;43.312;27.152;2022-09-03T07:19:04;100400.92;;;26.89;47.96
34658;BME280;20865;43.312;27.152;2022-09-03T07:21:34;100399.91;;;26.90;47.87
34658;BME280;20865;43.312;27.152;2022-09-03T07:24:07;100405.55;;;26.89;47.81
34658;BME280;20865;43.312;27.152;2022-09-03T07:26:40;100402.08;;;26.87;47.55
34658;BME280;20865;43.312;27.152;2022-09-03T07:29:11;100405.00;;;26.75;47.56
34658;BME280;20865;43.312;27.152;2022-09-03T07:31:42;100390.55;;;26.83;47.37
34658;BME280;20865;43.312;27.152;2022-09-03T07:34:11;100390.55;;;26.83;47.37
34658;BME280;20865;43.312;27.152;2022-09-03T07:36:44;100397.23;;;26.84;47.97
34658;BME280;20865;43.312;27.152;2022-09-03T07:39:17;100401.53;;;26.73;48.01
34658;BME280;20865;43.312;27.152;2022-09-03T07:41:45;100410.14;;;26.65;47.96
34658;BME280;20865;43.312;27.152;2022-09-03T07:44:14;100411.13;;;26.73;47.84
34658;BME280;20865;43.312;27.152;2022-09-03T07:46:43;100408.60;;;26.76;47.61
34658;BME280;20865;43.312;27.152;2022-09-03T07:49:13;100409.41;;;26.72;47.53
34658;BME280;20865;43.312;27.152;2022-09-03T07:51:40;100414.48;;;26.81;47.78
34658;BME280;20865;43.312;27.152;2022-09-03T07:54:09;100414.70;;;26.83;47.82
34658;BME280;20865;43.312;27.152;2022-09-03T07:56:38;100411.16;;;26.87;47.64
34658;BME280;20865;43.312;27.152;2022-09-03T07:59:06;100418.11;;;26.81;47.76
34658;BME280;20865;43.312;27.152;2022-09-03T08:01:35;100411.03;;;26.89;47.98
34658;BME280;20865;43.312;27.152;2022-09-03T08:04:03;100405.60;;;26.93;47.44
34658;BME280;20865;43.312;27.152;2022-09-03T08:06:32;100404.05;;;26.71;47.76
34658;BME280;20865;43.312;27.152;2022-09-03T08:09:03;100402.99;;;26.91;47.44
34658;BME280;20865;43.312;27.152;2022-09-03T08:11:32;100405.60;;;26.93;46.97
34658;BME280;20865;43.312;27.152;2022-09-03T08:14:05;100408.47;;;26.91;47.07
34658;BME280;20865;43.312;27.152;2022-09-03T08:16:35;100404.14;;;26.75;47.45
34658;BME280;20865;43.312;27.152;2022-09-03T08:19:04;100407.78;;;26.89;47.95
34658;BME280;20865;43.312;27.152;2022-09-03T08:21:33;100407.78;;;26.89;47.95
34658;BME280;20865;43.312;27.152;2022-09-03T08:24:00;100410.52;;;26.89;48.15
34658;BME280;20865;43.312;27.152;2022-09-03T08:26:31;100412.84;;;26.74;48.23
34658;BME280;20865;43.312;27.152;2022-09-03T08:28:59;100414.94;;;26.76;47.75
34658;BME280;20865;43.312;27.152;2022-09-03T08:31:27;100414.81;;;26.78;47.37
34658;BME280;20865;43.312;27.152;2022-09-03T08:33:57;100413.22;;;26.75;47.55
34658;BME280;20865;43.312;27.152;2022-09-03T08:36:27;100415.16;;;26.79;47.94
34658;BME280;20865;43.312;27.152;2022-09-03T08:39:01;100415.80;;;26.77;47.78
34658;BME280;20865;43.312;27.152;2022-09-03T08:45:00;100404.92;;;26.95;47.77
34658;BME280;20865;43.312;27.152;2022-09-03T08:47:50;100409.42;;;26.96;47.96
34658;BME280;20865;43.312;27.152;2022-09-03T08:53:02;100409.81;;;27.01;47.94
34658;BME280;20865;43.312;27.152;2022-09-03T08:55:30;100406.70;;;27.10;47.92
34658;BME280;20865;43.312;27.152;2022-09-03T08:58:13;100412.41;;;27.12;47.33
34658;BME280;20865;43.312;27.152;2022-09-03T09:03:28;100411.52;;;27.21;46.79
34658;BME280;20865;43.312;27.152;2022-09-03T09:06:06;100412.31;;;27.18;47.40
34658;BME280;20865;43.312;27.152;2022-09-03T09:08:56;100412.31;;;27.18;47.40
34658;BME280;20865;43.312;27.152;2022-09-03T09:17:30;100416.89;;;27.13;47.95
34658;BME280;20865;43.312;27.152;2022-09-03T09:20:17;100419.33;;;27.06;48.19
34658;BME280;20865;43.312;27.152;2022-09-03T09:22:49;100418.84;;;26.97;47.98
34658;BME280;20865;43.312;27.152;2022-09-03T09:25:22;100422.38;;;27.03;48.08
34658;BME280;20865;43.312;27.152;2022-09-03T09:28:00;100422.12;;;27.11;47.91
34658;BME280;20865;43.312;27.152;2022-09-03T09:30:29;100426.33;;;27.15;47.63
34658;BME280;20865;43.312;27.152;2022-09-03T09:32:58;100425.89;;;27.10;47.83
34658;BME280;20865;43.312;27.152;2022-09-03T09:35:26;100424.61;;;27.14;47.83
34658;BME280;20865;43.312;27.152;2022-09-03T09:37:56;100426.89;;;27.18;47.71
34658;BME280;20865;43.312;27.152;2022-09-03T09:40:38;100430.63;;;27.27;47.88
34658;BME280;20865;43.312;27.152;2022-09-03T09:43:13;100431.43;;;27.23;47.65
34658;BME280;20865;43.312;27.152;2022-09-03T09:45:45;100436.96;;;27.27;47.53
34658;BME280;20865;43.312;27.152;2022-09-03T09:48:30;100430.92;;;27.24;47.41
34658;BME280;20865;43.312;27.152;2022-09-03T09:51:10;100435.21;;;27.26;47.32
34658;BME280;20865;43.312;27.152;2022-09-03T09:53:39;100431.05;;;27.22;47.64
34658;BME280;20865;43.312;27.152;2022-09-03T09:56:07;100448.61;;;27.16;47.49
34658;BME280;20865;43.312;27.152;2022-09-03T09:58:35;100439.69;;;27.14;47.80
34658;BME280;20865;43.312;27.152;2022-09-03T10:01:22;100442.83;;;27.19;47.05
34658;BME280;20865;43.312;27.152;2022-09-03T10:03:53;100440.81;;;27.21;47.41
34658;BME280;20865;43.312;27.152;2022-09-03T10:06:26;100442.02;;;27.22;47.48
34658;BME280;20865;43.312;27.152;2022-09-03T10:09:18;100442.48;;;27.18;47.43
34658;BME280;20865;43.312;27.152;2022-09-03T10:12:17;100447.80;;;27.19;47.52
34658;BME280;20865;43.312;27.152;2022-09-03T10:14:52;100446.36;;;27.05;47.50
34658;BME280;20865;43.312;27.152;2022-09-03T10:17:29;100456.27;;;27.12;47.49
34658;BME280;20865;43.312;27.152;2022-09-03T10:20:10;100456.41;;;27.20;47.38
34658;BME280;20865;43.312;27.152;2022-09-03T10:23:05;100456.23;;;27.22;47.53
34658;BME280;20865;43.312;27.152;2022-09-03T10:25:33;100455.30;;;27.27;47.43
34658;BME280;20865;43.312;27.152;2022-09-03T10:27:59;100464.22;;;27.29;47.24
34658;BME280;20865;43.312;27.152;2022-09-03T10:30:28;100475.67;;;27.38;47.07
34658;BME280;20865;43.312;27.152;2022-09-03T10:35:34;100471.05;;;27.39;46.36
34658;BME280;20865;43.312;27.152;2022-09-03T10:41:02;100472.93;;;27.38;46.70
34658;BME280;20865;43.312;27.152;2022-09-03T10:46:28;100484.25;;;27.39;47.03
34658;BME280;20865;43.312;27.152;2022-09-03T10:49:23;100492.82;;;27.40;46.87
34658;BME280;20865;43.312;27.152;2022-09-03T10:52:13;100492.82;;;27.40;46.87
34658;BME280;20865;43.312;27.152;2022-09-03T10:54:54;100498.31;;;27.40;46.77
34658;BME280;20865;43.312;27.152;2022-09-03T11:00:13;100504.73;;;27.21;46.84
34658;BME280;20865;43.312;27.152;2022-09-03T11:05:43;100499.18;;;27.07;47.09
34658;BME280;20865;43.312;27.152;2022-09-03T11:08:22;100515.00;;;27.00;47.53
34658;BME280;20865;43.312;27.152;2022-09-03T11:10:53;100509.36;;;26.92;47.71
34658;BME280;20865;43.312;27.152;2022-09-03T11:13:26;100510.38;;;26.91;47.47
34658;BME280;20865;43.312;27.152;2022-09-03T11:15:59;100510.20;;;26.78;47.57
34658;BME280;20865;43.312;27.152;2022-09-03T11:18:43;100510.20;;;26.78;47.57
34658;BME280;20865;43.312;27.152;2022-09-03T11:21:10;100507.36;;;26.74;47.42
34658;BME280;20865;43.312;27.152;2022-09-03T11:23:45;100510.83;;;26.86;47.56
34658;BME280;20865;43.312;27.152;2022-09-03T11:26:16;100513.58;;;26.86;47.48
34658;BME280;20865;43.312;27.152;2022-09-03T11:29:05;100514.66;;;26.89;47.97
34658;BME280;20865;43.312;27.152;2022-09-03T11:31:54;100519.84;;;26.92;47.55
34658;BME280;20865;43.312;27.152;2022-09-03T11:34:28;100527.34;;;26.90;47.35
34658;BME280;20865;43.312;27.152;2022-09-03T11:37:15;100522.48;;;26.98;47.40
34658;BME280;20865;43.312;27.152;2022-09-03T11:39:37;100520.98;;;26.99;47.35
34658;BME280;20865;43.312;27.152;2022-09-03T11:42:10;100519.97;;;27.00;47.15
34658;BME280;20865;43.312;27.152;2022-09-03T11:44:43;100526.88;;;27.04;46.93
34658;BME280;20865;43.312;27.152;2022-09-03T11:47:23;100525.39;;;26.96;47.12
34658;BME280;20865;43.312;27.152;2022-09-03T11:49:52;100528.20;;;26.91;46.85
34658;BME280;20865;43.312;27.152;2022-09-03T11:52:31;100525.80;;;26.92;47.01
34658;BME280;20865;43.312;27.152;2022-09-03T11:54:59;100528.55;;;26.92;46.52
34658;BME280;20865;43.312;27.152;2022-09-03T11:57:31;100528.55;;;26.92;46.52
34658;BME280;20865;43.312;27.152;2022-09-03T12:00:16;100525.11;;;26.90;46.76
34658;BME280;20865;43.312;27.152;2022-09-03T12:02:47;100529.44;;;26.92;47.13
34658;BME280;20865;43.312;27.152;2022-09-03T12:16:54;100546.23;;;26.83;46.96
34658;BME280;20865;43.312;27.152;2022-09-03T12:22:15;100538.46;;;26.89;46.78
34658;BME280;20865;43.312;27.152;2022-09-03T12:24:43;100534.03;;;26.92;46.56
34658;BME280;20865;43.312;27.152;2022-09-03T12:27:25;100533.11;;;26.87;46.81
34658;BME280;20865;43.312;27.152;2022-09-03T12:29:55;100537.50;;;26.94;47.02
34658;BME280;20865;43.312;27.152;2022-09-03T12:32:31;100529.34;;;26.88;46.98
34658;BME280;20865;43.312;27.152;2022-09-03T12:34:56;100526.38;;;26.95;47.01
34658;BME280;20865;43.312;27.152;2022-09-03T12:37:25;100526.38;;;26.95;47.01
34658;BME280;20865;43.312;27.152;2022-09-03T12:39:54;100538.00;;;27.03;45.98
34658;BME280;20865;43.312;27.152;2022-09-03T12:42:27;100536.98;;;26.94;46.86
34658;BME280;20865;43.312;27.152;2022-09-03T12:45:03;100545.27;;;26.98;47.09
34658;BME280;20865;43.312;27.152;2022-09-03T12:47:24;100539.38;;;26.93;47.00
34658;BME280;20865;43.312;27.152;2022-09-03T12:49:56;100535.45;;;27.05;46.79
34658;BME280;20865;43.312;27.152;2022-09-03T12:52:27;100547.21;;;27.12;47.03
34658;BME280;20865;43.312;27.152;2022-09-03T12:57:44;100533.52;;;27.02;46.45
34658;BME280;20865;43.312;27.152;2022-09-03T13:00:12;100550.50;;;26.82;46.72
34658;BME280;20865;43.312;27.152;2022-09-03T13:02:57;100546.30;;;26.97;46.87
34658;BME280;20865;43.312;27.152;2022-09-03T13:05:24;100551.27;;;26.98;46.54
34658;BME280;20865;43.312;27.152;2022-09-03T13:07:54;100545.16;;;26.90;46.51
34658;BME280;20865;43.312;27.152;2022-09-03T13:10:32;100551.04;;;27.05;47.16
34658;BME280;20865;43.312;27.152;2022-09-03T13:13:01;100551.04;;;27.05;47.16
34658;BME280;20865;43.312;27.152;2022-09-03T13:15:30;100546.74;;;27.02;46.89
34658;BME280;20865;43.312;27.152;2022-09-03T13:18:05;100548.30;;;27.05;46.65
34658;BME280;20865;43.312;27.152;2022-09-03T13:20:51;100549.89;;;27.07;46.46
34658;BME280;20865;43.312;27.152;2022-09-03T13:25:59;100542.02;;;27.08;46.63
34658;BME280;20865;43.312;27.152;2022-09-03T13:28:33;100550.18;;;27.04;46.45
34658;BME280;20865;43.312;27.152;2022-09-03T13:33:58;100552.41;;;27.05;46.28
34658;BME280;20865;43.312;27.152;2022-09-03T13:36:41;100559.59;;;26.92;46.47
34658;BME280;20865;43.312;27.152;2022-09-03T13:39:25;100559.59;;;26.92;46.47
34658;BME280;20865;43.312;27.152;2022-09-03T13:41:55;100560.00;;;26.88;46.64
34658;BME280;20865;43.312;27.152;2022-09-03T13:44:37;100549.26;;;26.71;46.33
34658;BME280;20865;43.312;27.152;2022-09-03T13:50:06;100569.59;;;26.88;46.34
34658;BME280;20865;43.312;27.152;2022-09-03T13:53:03;100560.58;;;26.91;46.38
34658;BME280;20865;43.312;27.152;2022-09-03T13:55:43;100564.39;;;26.84;46.22
34658;BME280;20865;43.312;27.152;2022-09-03T14:01:17;100572.36;;;26.78;46.69
34658;BME280;20865;43.312;27.152;2022-09-03T14:03:52;100580.84;;;27.04;46.18
34658;BME280;20865;43.312;27.152;2022-09-03T14:09:55;100586.24;;;26.71;46.37
34658;BME280;20865;43.312;27.152;2022-09-03T14:12:38;100594.05;;;26.66;46.46
34658;BME280;20865;43.312;27.152;2022-09-03T14:15:21;100598.52;;;26.57;46.37
34658;BME280;20865;43.312;27.152;2022-09-03T14:18:09;100593.04;;;26.57;46.64
34658;BME280;20865;43.312;27.152;2022-09-03T14:20:52;100598.01;;;26.57;46.68
34658;BME280;20865;43.312;27.152;2022-09-03T14:23:39;100603.30;;;26.49;46.55
34658;BME280;20865;43.312;27.152;2022-09-03T14:26:06;100603.47;;;26.48;46.78
34658;BME280;20865;43.312;27.152;2022-09-03T14:28:37;100606.05;;;26.49;46.69
34658;BME280;20865;43.312;27.152;2022-09-03T14:36:50;100606.91;;;26.50;46.44
34658;BME280;20865;43.312;27.152;2022-09-03T14:39:33;100609.87;;;26.52;46.21
34658;BME280;20865;43.312;27.152;2022-09-03T14:42:16;100604.50;;;26.41;46.36
34658;BME280;20865;43.312;27.152;2022-09-03T14:45:06;100609.08;;;26.31;46.67
34658;BME280;20865;43.312;27.152;2022-09-03T14:52:58;100608.95;;;26.42;46.70
34658;BME280;20865;43.312;27.152;2022-09-03T14:58:22;100620.65;;;26.44;46.22
34658;BME280;20865;43.312;27.152;2022-09-03T15:08:52;100627.46;;;26.34;46.69
34658;BME280;20865;43.312;27.152;2022-09-03T15:11:22;100631.34;;;26.32;46.54
34658;BME280;20865;43.312;27.152;2022-09-03T15:13:52;100627.89;;;26.30;46.84
34658;BME280;20865;43.312;27.152;2022-09-03T15:19:39;100628.60;;;26.32;46.77
34658;BME280;20865;43.312;27.152;2022-09-03T15:22:31;100625.55;;;26.25;46.48